createdAt,value
2022-10-15T05:03:50.888Z,16.45
2022-10-15T05:06:21.650Z,15.75
2022-10-15T05:08:57.109Z,15.38
2022-10-15T05:11:41.098Z,18.92
2022-10-15T05:14:15.627Z,11.60
2022-10-15T05:16:59.275Z,15.95
2022-10-15T05:19:36.399Z,17.77
2022-10-15T05:22:06.792Z,14.82
2022-10-15T05:24:49.667Z,17.20
2022-10-15T05:27:32.828Z,11.88
2022-10-15T05:30:05.169Z,16.42
2022-10-15T05:32:56.144Z,14.98
2022-10-15T05:35:27.950Z,14.77
2022-10-15T05:38:07.610Z,22.77
2022-10-15T05:40:39.032Z,16.85
2022-10-15T05:43:13.727Z,21.20
2022-10-15T05:45:43.337Z,34.42
2022-10-15T05:48:15.276Z,13.18
2022-10-15T05:50:46.698Z,15.15
2022-10-15T05:53:24.035Z,16.00
2022-10-15T05:56:01.147Z,22.30
2022-10-15T05:58:37.291Z,12.88
2022-10-15T06:01:09.168Z,16.67
2022-10-15T06:03:42.307Z,18.02
2022-10-15T06:06:26.076Z,21.50
2022-10-15T06:09:11.790Z,20.13
2022-10-15T06:12:00.521Z,12.98
2022-10-15T06:15:03.500Z,13.70
2022-10-15T06:18:00.729Z,18.17
2022-10-15T06:20:54.942Z,19.90
2022-10-15T06:23:50.762Z,13.90
2022-10-15T07:13:24.523Z,25.65
2022-10-15T07:17:38.990Z,22.00
2022-10-15T07:26:30.685Z,22.98
2022-10-15T08:09:58.954Z,24.83
2022-10-15T08:12:36.856Z,27.27
2022-10-15T08:25:34.444Z,21.65
2022-10-15T08:55:29.285Z,18.70
2022-10-15T08:58:46.049Z,19.80
2022-10-15T09:01:34.139Z,17.90
2022-10-15T09:07:12.757Z,19.88
2022-10-15T09:22:28.644Z,23.90
2022-10-15T09:25:24.723Z,19.70
2022-10-15T09:35:19.215Z,19.48
2022-10-15T09:41:21.619Z,14.70
2022-10-15T09:43:54.431Z,16.08
2022-10-15T09:46:27.687Z,18.45
2022-10-15T09:56:55.606Z,14.48
2022-10-15T09:59:37.836Z,14.95
2022-10-15T10:02:21.087Z,14.23
2022-10-15T10:04:51.199Z,16.80
2022-10-15T10:07:35.662Z,28.85
2022-10-15T10:10:13.474Z,16.05
2022-10-15T10:13:04.569Z,14.10
2022-10-15T10:16:13.700Z,14.05
2022-10-15T10:19:17.952Z,15.52
2022-10-15T10:21:50.954Z,15.95
2022-10-15T10:24:35.210Z,13.30
2022-10-15T10:27:28.394Z,12.82
2022-10-15T10:30:07.632Z,12.57
2022-10-15T10:32:39.366Z,14.18
2022-10-15T10:35:32.613Z,13.88
2022-10-15T10:38:27.784Z,12.55
2022-10-15T10:41:13.617Z,16.05
2022-10-15T10:43:58.806Z,13.15
2022-10-15T10:46:45.817Z,26.80
2022-10-15T10:49:58.877Z,14.18
2022-10-15T10:52:42.225Z,14.93
2022-10-15T10:55:24.945Z,11.15
2022-10-15T10:58:08.309Z,14.68
2022-10-15T11:06:07.857Z,15.98
2022-10-15T11:09:22.292Z,11.07
2022-10-15T11:20:33.361Z,13.23
2022-10-15T11:41:40.122Z,16.60
2022-10-15T11:44:50.971Z,16.55
2022-10-15T11:47:36.331Z,13.90
2022-10-15T12:14:32.617Z,20.75
2022-10-15T12:19:55.727Z,19.27
2022-10-15T12:22:56.985Z,21.67
2022-10-15T12:29:41.262Z,17.48
2022-10-15T12:33:16.292Z,15.38
2022-10-15T12:35:56.858Z,18.38
2022-10-15T12:41:58.739Z,16.23
2022-10-15T12:44:35.742Z,25.83
2022-10-15T12:48:24.817Z,16.45
2022-10-15T12:55:42.323Z,18.33
2022-10-15T12:58:45.105Z,12.90
2022-10-15T13:01:59.338Z,18.50
2022-10-15T13:05:14.440Z,15.85
2022-10-15T13:11:40.179Z,17.75
2022-10-15T13:15:09.111Z,17.67
2022-10-15T13:23:01.947Z,18.17
2022-10-15T13:26:00.954Z,19.60
2022-10-15T13:28:42.671Z,33.35
2022-10-15T13:31:30.691Z,18.88
2022-10-15T13:34:17.371Z,21.50
2022-10-15T13:37:10.269Z,20.80
2022-10-15T13:43:24.214Z,17.20
2022-10-15T13:46:43.527Z,25.15
2022-10-15T13:49:28.903Z,21.35
2022-10-15T13:52:10.491Z,19.77
2022-10-15T13:58:23.547Z,24.58
2022-10-15T14:01:06.577Z,19.67
2022-10-15T14:03:54.510Z,23.88
2022-10-15T14:06:36.424Z,28.23
2022-10-15T14:09:20.888Z,28.58
2022-10-15T14:12:26.803Z,22.00
2022-10-15T14:15:45.829Z,26.25
2022-10-15T14:18:55.719Z,25.80
2022-10-15T14:21:32.915Z,32.38
2022-10-15T14:24:12.657Z,30.05
2022-10-15T14:26:54.035Z,24.77
2022-10-15T14:29:35.143Z,34.05
2022-10-15T14:32:24.848Z,32.90
2022-10-15T14:34:58.226Z,25.45
2022-10-15T14:37:44.963Z,26.93
2022-10-15T14:40:24.898Z,26.17
2022-10-15T14:43:07.471Z,29.15
2022-10-15T14:45:46.009Z,58.65
2022-10-15T14:48:51.974Z,31.20
2022-10-15T14:51:38.165Z,27.48
2022-10-15T14:54:26.993Z,33.65
2022-10-15T14:57:05.240Z,36.75
2022-10-15T15:04:46.279Z,43.22
2022-10-15T15:07:26.869Z,35.85
2022-10-15T15:10:09.689Z,40.65
2022-10-15T15:13:22.398Z,35.45
2022-10-15T15:16:07.097Z,42.22
2022-10-15T15:18:44.155Z,43.95
2022-10-15T15:21:17.927Z,39.72
2022-10-15T15:23:55.063Z,43.95
2022-10-15T15:26:34.316Z,48.63
2022-10-15T15:29:15.546Z,60.90
2022-10-15T15:31:45.441Z,49.60
2022-10-15T15:34:15.764Z,52.88
2022-10-15T15:36:46.029Z,49.05
2022-10-15T15:39:17.187Z,42.40
2022-10-15T15:41:49.469Z,45.38
2022-10-15T15:44:19.099Z,37.25
2022-10-15T15:46:51.568Z,47.60
2022-10-15T15:49:21.285Z,45.47
2022-10-15T15:51:51.604Z,55.00
2022-10-15T15:54:22.468Z,44.83
2022-10-15T15:56:55.115Z,57.78
2022-10-15T15:59:26.514Z,59.00
2022-10-15T16:01:57.741Z,49.70
2022-10-15T16:04:28.106Z,55.05
2022-10-15T16:07:01.222Z,61.72
2022-10-15T16:09:33.525Z,50.22
2022-10-15T16:12:09.910Z,54.03
2022-10-15T16:14:39.978Z,45.47
2022-10-15T16:17:34.086Z,48.78
2022-10-15T16:20:06.733Z,50.70
2022-10-15T16:22:44.381Z,45.80
2022-10-15T16:25:31.088Z,49.03
2022-10-15T16:28:15.975Z,54.40
2022-10-15T16:30:55.794Z,46.53
2022-10-15T16:33:36.060Z,42.00
2022-10-15T16:40:30.763Z,51.13
2022-10-15T16:43:24.976Z,48.50
2022-10-15T16:46:02.563Z,47.75
2022-10-15T16:48:53.582Z,53.90
2022-10-15T16:51:26.453Z,44.25
2022-10-15T16:53:58.861Z,52.80
2022-10-15T16:56:32.933Z,52.85
2022-10-15T16:59:35.414Z,49.40
2022-10-15T17:02:06.609Z,66.13
2022-10-15T17:04:36.420Z,51.15
2022-10-15T17:07:05.994Z,51.85
2022-10-15T17:09:40.765Z,55.28
2022-10-15T17:12:16.443Z,48.20
2022-10-15T17:14:52.324Z,49.50
2022-10-15T17:17:24.424Z,44.65
2022-10-15T17:20:01.188Z,40.75
2022-10-15T17:22:32.176Z,47.03
2022-10-15T17:25:02.945Z,41.30
2022-10-15T17:27:36.232Z,45.22
2022-10-15T17:30:10.802Z,45.70
2022-10-15T17:32:41.362Z,39.97
2022-10-15T17:35:13.232Z,46.88
2022-10-15T17:37:43.359Z,40.97
2022-10-15T17:40:17.221Z,40.50
2022-10-15T17:42:49.620Z,32.10
2022-10-15T17:45:23.143Z,35.92
2022-10-15T17:47:54.836Z,38.15
2022-10-15T17:50:27.457Z,41.60
2022-10-15T17:53:01.971Z,44.20
2022-10-15T17:55:32.398Z,52.97
2022-10-15T17:58:13.162Z,41.67
2022-10-15T18:00:45.233Z,41.15
2022-10-15T18:03:16.395Z,36.88
2022-10-15T18:05:49.088Z,40.45
2022-10-15T18:08:27.215Z,45.75
2022-10-15T18:10:58.357Z,43.78
2022-10-15T18:13:31.531Z,40.05
2022-10-15T18:16:07.555Z,44.97
2022-10-15T18:18:41.977Z,46.63
2022-10-15T18:21:14.000Z,39.70
2022-10-15T18:23:45.080Z,42.97
2022-10-15T18:26:21.471Z,40.38
2022-10-15T18:28:56.091Z,37.80
2022-10-15T18:31:36.866Z,42.30
2022-10-15T18:37:12.023Z,41.38
2022-10-15T18:39:46.998Z,40.85
2022-10-15T18:42:22.439Z,49.13
2022-10-15T18:45:01.487Z,42.67
2022-10-15T18:48:00.875Z,40.08
2022-10-15T18:51:53.863Z,47.72
2022-10-15T18:54:28.683Z,42.72
2022-10-15T18:57:03.590Z,48.17
2022-10-15T19:00:02.008Z,56.88
2022-10-15T19:02:43.499Z,67.22
2022-10-15T19:05:17.366Z,64.68
2022-10-15T19:07:48.268Z,60.38
2022-10-15T19:10:21.069Z,55.92
2022-10-15T19:13:03.158Z,58.58
2022-10-15T19:15:37.726Z,57.13
2022-10-15T19:18:30.154Z,61.15
2022-10-15T19:21:04.283Z,62.75
2022-10-15T19:23:37.535Z,69.22
2022-10-15T19:26:10.854Z,63.03
2022-10-15T19:28:42.012Z,61.50
2022-10-15T19:31:51.180Z,49.55
2022-10-15T19:34:39.905Z,51.13
2022-10-15T19:37:16.875Z,55.65
2022-10-15T19:40:02.818Z,92.30
2022-10-15T19:43:37.109Z,59.40
2022-10-15T19:46:33.655Z,50.03
2022-10-15T19:49:42.565Z,61.40
2022-10-15T19:52:43.199Z,64.05
2022-10-15T19:55:26.419Z,69.82
2022-10-15T19:58:02.661Z,80.80
2022-10-15T20:00:34.595Z,74.18
2022-10-15T20:03:22.644Z,56.08
2022-10-15T20:06:07.672Z,56.22
2022-10-15T20:08:51.421Z,59.17
2022-10-15T20:11:26.988Z,51.42
2022-10-15T20:14:02.552Z,55.17
2022-10-15T20:16:33.782Z,59.47
2022-10-15T20:19:05.788Z,57.45
2022-10-15T20:21:40.424Z,50.15
2022-10-15T20:24:13.236Z,64.28
2022-10-15T20:26:43.612Z,48.38
2022-10-15T20:29:17.713Z,47.35
2022-10-15T20:31:52.028Z,54.78
2022-10-15T20:34:22.130Z,62.67
2022-10-15T20:36:57.574Z,63.80
2022-10-15T20:39:28.717Z,59.95
2022-10-15T20:41:59.042Z,53.80
2022-10-15T20:44:30.305Z,43.92
2022-10-15T20:47:04.599Z,41.30
2022-10-15T20:49:38.002Z,53.58
2022-10-15T20:52:12.969Z,34.22
2022-10-15T20:54:44.031Z,37.70
2022-10-15T20:57:25.827Z,34.58
2022-10-15T20:59:56.784Z,38.60
2022-10-15T21:02:32.012Z,39.78
2022-10-15T21:05:03.722Z,45.00
2022-10-15T21:07:35.820Z,30.17
2022-10-15T21:10:11.627Z,36.30
2022-10-15T21:12:41.893Z,36.50
2022-10-15T21:15:12.535Z,39.72
2022-10-15T21:17:43.378Z,34.53
2022-10-15T21:20:13.744Z,34.42
2022-10-15T21:22:42.997Z,44.72
2022-10-15T21:25:24.005Z,38.28
2022-10-15T21:27:55.634Z,41.17
2022-10-15T21:30:25.742Z,44.50
2022-10-15T21:32:55.816Z,44.17
2022-10-15T21:35:26.598Z,44.58
2022-10-15T21:37:56.153Z,46.72
2022-10-15T21:40:27.198Z,46.85
2022-10-15T21:42:56.789Z,43.92
2022-10-15T21:45:27.926Z,42.35
2022-10-15T21:47:58.770Z,37.30
2022-10-15T21:50:29.336Z,33.25
2022-10-15T21:52:58.540Z,35.10
2022-10-15T21:55:31.192Z,32.15
2022-10-15T21:58:00.306Z,31.40
2022-10-15T22:00:31.915Z,27.90
2022-10-15T22:03:01.231Z,26.73
2022-10-15T22:05:34.035Z,23.90
2022-10-15T22:08:07.451Z,26.17
2022-10-15T22:10:38.911Z,31.15
2022-10-15T22:13:08.147Z,29.13
2022-10-15T22:15:42.972Z,24.77
2022-10-15T22:18:12.348Z,29.38
2022-10-15T22:20:43.323Z,28.52
2022-10-15T22:23:12.842Z,26.02
2022-10-15T22:25:46.654Z,27.25
2022-10-15T22:28:16.132Z,23.17
2022-10-15T22:30:45.691Z,22.58
2022-10-15T22:33:18.236Z,22.75
2022-10-15T22:35:48.645Z,22.08
2022-10-15T22:38:18.047Z,22.30
2022-10-15T22:40:59.224Z,24.25
2022-10-15T22:43:28.479Z,24.17
2022-10-15T22:46:01.124Z,22.02
2022-10-15T22:48:31.450Z,29.13
2022-10-15T22:51:04.118Z,23.33
2022-10-15T22:53:35.070Z,21.67
2022-10-15T22:56:10.306Z,23.15
2022-10-15T22:58:43.398Z,21.25
2022-10-15T23:01:20.800Z,24.55
2022-10-15T23:03:59.505Z,20.92
2022-10-15T23:06:29.776Z,22.55
2022-10-15T23:09:01.162Z,23.17
2022-10-15T23:11:34.403Z,20.55
2022-10-15T23:14:12.048Z,19.48
2022-10-15T23:16:45.808Z,20.08
2022-10-15T23:19:22.816Z,19.30
2022-10-15T23:21:53.762Z,16.10
2022-10-15T23:27:46.970Z,14.20
2022-10-15T23:30:33.055Z,16.42
2022-10-15T23:33:11.472Z,19.00
2022-10-15T23:35:46.608Z,16.10
2022-10-15T23:38:52.986Z,19.60
2022-10-15T23:41:23.923Z,20.77
2022-10-15T23:43:55.094Z,17.70
2022-10-15T23:46:27.790Z,14.93
2022-10-15T23:49:30.866Z,19.58
2022-10-15T23:52:03.416Z,16.83
2022-10-15T23:54:37.820Z,18.63
2022-10-15T23:57:08.792Z,15.63
